Time;durP1;ratioP1;P1;durP2;ratioP2;P2;SDS_P1;SDS_P2;PMS_P1;PMS_P2;Temp;Humidity;BMP_temperature;BMP_pressure;BME280_temperature;BME280_humidity;BME280_pressure;Samples;Min_cycle;Max_cycle;Signal;HPM_P1;HPM_P2
2024/02/07 00:00:18;;;;;;;2.40;0.80;;;8.70;99.90;;;;;;4961042;28;20046;-83
2024/02/07 00:02:44;;;;;;;1.98;0.50;;;8.60;99.90;;;;;;4996885;28;20050;-83
2024/02/07 00:05:09;;;;;;;2.80;0.82;;;8.50;99.90;;;;;;4980239;28;20034;-83
2024/02/07 00:07:39;;;;;;;1.80;0.80;;;8.40;99.90;;;;;;4969423;28;20469;-82
2024/02/07 00:10:06;;;;;;;2.10;0.50;;;8.40;99.90;;;;;;4961992;28;20027;-82
2024/02/07 00:12:32;;;;;;;4.65;0.80;;;8.40;99.90;;;;;;4961545;28;20121;-82
2024/02/07 00:15:00;;;;;;;3.53;0.77;;;8.30;99.90;;;;;;4976621;28;20133;-82
2024/02/07 00:17:26;;;;;;;2.92;0.77;;;8.30;99.90;;;;;;4960824;28;20126;-83
2024/02/07 00:19:51;;;;;;;2.03;0.70;;;8.20;99.90;;;;;;4976952;28;20062;-83
2024/02/07 00:22:17;;;;;;;3.80;0.98;;;8.20;99.90;;;;;;4960610;28;20034;-83
2024/02/07 00:24:43;;;;;;;4.00;0.90;;;8.10;99.90;;;;;;4976804;28;20039;-83
2024/02/07 00:27:08;;;;;;;3.75;1.02;;;8.00;99.90;;;;;;4976765;28;20039;-83
2024/02/07 00:29:35;;;;;;;3.25;0.70;;;8.00;99.90;;;;;;4977254;28;20487;-83
2024/02/07 00:32:01;;;;;;;3.90;0.90;;;8.10;99.90;;;;;;4960164;28;20031;-83
2024/02/07 00:34:26;;;;;;;3.58;0.95;;;8.10;99.90;;;;;;4944818;28;20031;-83
2024/02/07 00:36:52;;;;;;;1.80;0.70;;;8.10;99.90;;;;;;4960194;28;20178;-83
2024/02/07 00:39:18;;;;;;;2.83;0.70;;;8.20;99.90;;;;;;4976277;28;20050;-82
2024/02/07 00:41:44;;;;;;;4.13;0.90;;;8.20;99.90;;;;;;4960046;28;20034;-83
2024/02/07 00:44:10;;;;;;;4.35;0.80;;;8.20;99.90;;;;;;4976404;28;20039;-82
2024/02/07 00:46:35;;;;;;;4.60;1.00;;;8.20;99.90;;;;;;4960521;28;20406;-82
2024/02/07 00:49:03;;;;;;;1.95;0.82;;;8.20;99.90;;;;;;4960028;28;20035;-82
2024/02/07 00:51:30;;;;;;;2.88;0.88;;;8.20;99.90;;;;;;4992643;28;20027;-83
2024/02/07 00:53:56;;;;;;;4.10;0.90;;;8.20;99.90;;;;;;4975964;28;20038;-83
2024/02/07 00:56:22;;;;;;;3.40;1.08;;;8.20;99.90;;;;;;4975928;28;20022;-83
2024/02/07 00:58:47;;;;;;;5.10;0.90;;;8.20;99.90;;;;;;4975765;28;20137;-83
2024/02/07 01:01:13;;;;;;;4.72;1.02;;;8.10;99.90;;;;;;4960470;28;20038;-83
2024/02/07 01:03:39;;;;;;;3.05;1.08;;;8.10;99.90;;;;;;4976409;28;20031;-83
2024/02/07 01:06:05;;;;;;;4.50;1.10;;;8.10;99.90;;;;;;4977061;28;20027;-82
2024/02/07 01:08:30;;;;;;;4.38;1.02;;;8.20;99.90;;;;;;4960099;28;20039;-82
2024/02/07 01:10:56;;;;;;;2.55;0.90;;;8.20;99.90;;;;;;4943854;28;20192;-82
2024/02/07 01:13:22;;;;;;;2.50;0.70;;;8.10;99.90;;;;;;4960365;28;20490;-82
2024/02/07 01:15:48;;;;;;;2.28;0.63;;;8.10;99.90;;;;;;4943753;28;20038;-82
2024/02/07 01:18:13;;;;;;;3.70;0.82;;;8.10;99.90;;;;;;4959988;28;20568;-82
2024/02/07 01:20:39;;;;;;;2.63;0.73;;;8.00;99.90;;;;;;4960348;28;20027;-82
2024/02/07 01:23:05;;;;;;;2.80;0.95;;;8.00;99.90;;;;;;4968064;28;20035;-83
2024/02/07 01:25:30;;;;;;;4.05;1.05;;;8.00;99.90;;;;;;4977567;28;20046;-83
2024/02/07 01:27:56;;;;;;;6.78;1.40;;;8.00;99.90;;;;;;4999862;28;20030;-83
2024/02/07 01:30:22;;;;;;;4.43;0.70;;;7.90;99.90;;;;;;4999831;28;20034;-84
2024/02/07 01:32:50;;;;;;;2.72;1.08;;;7.80;99.90;;;;;;4981850;28;20035;-83
2024/02/07 01:35:16;;;;;;;4.40;1.10;;;7.80;99.90;;;;;;4959403;28;20034;-83
2024/02/07 01:37:42;;;;;;;4.68;1.05;;;7.80;99.90;;;;;;4943999;28;20471;-82
2024/02/07 01:40:11;;;;;;;3.58;0.93;;;7.80;99.90;;;;;;4959496;28;20027;-82
2024/02/07 01:42:37;;;;;;;5.13;1.23;;;7.80;99.90;;;;;;4975033;28;20023;-82
2024/02/07 01:45:31;;;;;;;3.47;1.15;;;7.80;99.90;;;;;;4974932;28;20528;-82
2024/02/07 01:48:00;;;;;;;2.80;0.85;;;7.80;99.90;;;;;;4944902;28;20049;-83
2024/02/07 01:50:27;;;;;;;3.17;1.10;;;7.70;99.90;;;;;;4959531;28;20039;-82
2024/02/07 01:52:58;;;;;;;6.05;1.15;;;7.70;99.90;;;;;;4958614;28;20037;-83
2024/02/07 01:55:25;;;;;;;6.43;1.20;;;7.70;99.90;;;;;;4974696;28;20082;-83
2024/02/07 01:57:52;;;;;;;5.40;1.02;;;7.60;99.90;;;;;;4975184;28;20031;-83
2024/02/07 02:00:18;;;;;;;4.75;1.20;;;7.60;99.90;;;;;;4958717;28;20050;-83
2024/02/07 02:02:48;;;;;;;3.17;0.80;;;7.60;99.90;;;;;;4958828;28;20034;-83
2024/02/07 02:05:14;;;;;;;5.07;1.40;;;7.50;99.90;;;;;;4958482;28;20031;-83
2024/02/07 02:07:43;;;;;;;3.33;0.90;;;7.40;99.90;;;;;;4975013;28;20038;-83
2024/02/07 02:10:10;;;;;;;4.90;1.20;;;7.40;99.90;;;;;;4974730;28;20029;-83
2024/02/07 02:12:36;;;;;;;5.20;1.25;;;7.40;99.90;;;;;;4974569;28;20027;-83
2024/02/07 02:15:04;;;;;;;6.07;1.00;;;7.30;99.90;;;;;;4958360;28;20142;-83
2024/02/07 02:17:30;;;;;;;5.07;1.10;;;7.20;99.90;;;;;;4976248;28;20023;-82
2024/02/07 02:19:56;;;;;;;4.25;1.20;;;7.20;99.90;;;;;;4974906;28;20034;-84
2024/02/07 02:22:45;;;;;;;4.35;1.23;;;7.20;99.90;;;;;;4943250;28;20512;-84
2024/02/07 02:25:49;;;;;;;7.25;1.17;;;7.20;99.90;;;;;;4976131;28;20035;-85
2024/02/07 02:28:27;;;;;;;4.90;1.13;;;7.10;99.90;;;;;;4974303;28;20030;-84
2024/02/07 02:30:59;;;;;;;4.00;0.93;;;7.10;99.90;;;;;;4976296;28;20490;-84
2024/02/07 02:33:30;;;;;;;;;;;7.20;99.90;;;;;;4975638;28;20073;-85
2024/02/07 02:36:00;;;;;;;5.60;1.60;;;7.10;99.90;;;;;;4974585;28;19913;-85
2024/02/07 02:38:35;;;;;;;5.55;1.40;;;7.10;99.90;;;;;;4959942;28;20467;-83
2024/02/07 02:41:03;;;;;;;4.32;1.23;;;7.10;99.90;;;;;;4975377;28;20019;-85
2024/02/07 02:43:30;;;;;;;3.88;1.08;;;7.10;99.90;;;;;;4975277;28;20034;-84
2024/02/07 02:45:59;;;;;;;4.47;1.25;;;7.10;99.90;;;;;;4976128;28;20092;-84
2024/02/07 02:48:24;;;;;;;4.20;1.13;;;7.10;99.90;;;;;;4975517;28;20410;-84
2024/02/07 02:50:51;;;;;;;4.15;1.00;;;7.10;99.90;;;;;;4976305;28;20023;-86
2024/02/07 02:53:17;;;;;;;5.30;1.08;;;7.00;99.90;;;;;;4990906;28;20015;-84
2024/02/07 02:55:43;;;;;;;5.80;1.30;;;7.00;99.90;;;;;;4999839;28;20036;-84
2024/02/07 02:58:09;;;;;;;6.22;1.17;;;7.00;99.90;;;;;;4998659;28;20011;-84
2024/02/07 03:00:38;;;;;;;5.00;1.15;;;6.90;99.90;;;;;;4981936;28;20065;-85
2024/02/07 03:03:04;;;;;;;5.60;1.08;;;6.80;99.90;;;;;;4975533;28;20027;-85
2024/02/07 03:10:37;;;;;;;4.05;0.85;;;6.70;99.90;;;;;;4975065;28;20042;-85
2024/02/07 03:13:03;;;;;;;6.38;1.02;;;6.70;99.90;;;;;;4974484;28;20451;-84
2024/02/07 03:15:29;;;;;;;8.13;1.40;;;6.70;99.90;;;;;;4974103;28;20057;-84
2024/02/07 03:17:54;;;;;;;4.95;0.85;;;6.70;99.90;;;;;;4958291;28;20058;-85
2024/02/07 03:20:20;;;;;;;4.70;1.00;;;6.80;99.90;;;;;;4958167;28;20031;-84
2024/02/07 03:22:46;;;;;;;2.95;0.70;;;6.70;99.90;;;;;;4958295;28;20193;-84
2024/02/07 03:25:16;;;;;;;2.88;0.82;;;6.70;99.90;;;;;;4957993;28;20097;-83
2024/02/07 03:27:48;;;;;;;3.60;0.93;;;6.60;99.90;;;;;;4974975;28;20034;-84
2024/02/07 03:30:21;;;;;;;4.72;1.00;;;6.60;99.90;;;;;;4974227;28;20015;-84
2024/02/07 03:32:48;;;;;;;3.55;1.17;;;6.60;99.90;;;;;;4958544;28;20062;-85
2024/02/07 03:35:14;;;;;;;4.05;1.00;;;6.60;99.90;;;;;;4957816;28;20043;-85
2024/02/07 03:37:40;;;;;;;2.60;0.82;;;6.60;99.90;;;;;;4975252;28;20106;-84
2024/02/07 03:40:12;;;;;;;3.25;1.10;;;6.60;99.90;;;;;;4941675;28;20034;-85
2024/02/07 03:42:38;;;;;;;4.63;0.95;;;6.60;99.90;;;;;;4973862;28;20023;-85
2024/02/07 03:45:06;;;;;;;3.50;0.88;;;6.60;99.90;;;;;;4957499;28;20126;-83
2024/02/07 03:47:32;;;;;;;1.85;0.80;;;6.60;99.90;;;;;;4973777;28;20463;-85
2024/02/07 03:49:58;;;;;;;2.92;0.65;;;6.60;99.90;;;;;;4973949;28;20467;-85
2024/02/07 03:52:24;;;;;;;2.50;1.00;;;6.60;99.90;;;;;;4957639;28;20027;-85
2024/02/07 03:54:50;;;;;;;3.42;0.93;;;6.70;99.90;;;;;;4941355;28;20060;-85
2024/02/07 03:57:20;;;;;;;2.47;0.70;;;6.60;99.90;;;;;;4958151;28;20066;-84
2024/02/07 03:59:49;;;;;;;6.05;1.10;;;6.60;99.90;;;;;;4973978;28;20063;-84
2024/02/07 04:02:21;;;;;;;4.85;1.45;;;6.60;99.90;;;;;;4974718;28;20101;-85
2024/02/07 04:04:50;;;;;;;3.45;1.02;;;6.60;99.90;;;;;;4962211;28;20177;-84
2024/02/07 04:07:19;;;;;;;6.18;1.25;;;6.60;99.90;;;;;;4978234;28;20034;-85
2024/02/07 04:09:48;;;;;;;4.22;0.80;;;6.70;99.90;;;;;;4977840;28;20023;-84
2024/02/07 05:17:18;;;;;;;;;;;7.00;99.90;;;;;;4959499;28;20051;-84
2024/02/07 05:19:47;;;;;;;4.68;1.20;;;7.00;99.90;;;;;;4957074;29;20401;-83
2024/02/07 05:22:14;;;;;;;6.97;1.40;;;7.00;99.90;;;;;;4973310;28;20133;-85
2024/02/07 05:24:40;;;;;;;3.70;1.20;;;7.00;99.90;;;;;;4958880;28;20039;-84
2024/02/07 05:27:06;;;;;;;4.15;1.30;;;7.00;99.90;;;;;;4940756;29;20034;-84
2024/02/07 05:29:35;;;;;;;5.78;1.30;;;6.90;99.90;;;;;;4957176;29;20031;-82
2024/02/07 05:32:01;;;;;;;5.80;1.20;;;6.90;99.90;;;;;;4958797;28;20039;-85
2024/02/07 05:34:27;;;;;;;5.30;1.40;;;7.00;99.90;;;;;;4941005;29;20046;-83
2024/02/07 05:36:53;;;;;;;6.38;1.02;;;7.00;99.90;;;;;;4957194;29;20035;-84
2024/02/07 05:39:19;;;;;;;8.55;1.90;;;7.00;99.90;;;;;;4957619;29;20073;-84
2024/02/07 05:41:45;;;;;;;4.68;0.95;;;7.00;99.90;;;;;;4942267;29;20435;-83
2024/02/07 05:44:12;;;;;;;5.18;1.50;;;7.10;99.90;;;;;;4976692;28;20027;-83
2024/02/07 05:46:38;;;;;;;7.35;1.27;;;7.10;99.90;;;;;;4980662;28;20043;-83
2024/02/07 05:49:04;;;;;;;6.55;1.17;;;7.10;99.90;;;;;;4981008;28;20061;-84
2024/02/07 05:51:29;;;;;;;4.25;1.45;;;7.10;99.90;;;;;;4957773;28;20042;-84
2024/02/07 05:53:55;;;;;;;5.32;1.38;;;7.10;99.90;;;;;;4925048;29;20478;-84
2024/02/07 05:56:21;;;;;;;7.95;1.50;;;7.10;99.90;;;;;;4940500;29;20471;-84
2024/02/07 05:58:51;;;;;;;3.40;1.00;;;7.10;99.90;;;;;;4943931;28;20043;-84
2024/02/07 06:01:23;;;;;;;5.65;1.23;;;7.10;99.90;;;;;;4975724;28;20034;-83
2024/02/07 06:03:52;;;;;;;8.20;1.45;;;7.10;99.90;;;;;;4974469;28;20023;-84
2024/02/07 06:06:22;;;;;;;3.45;1.08;;;7.10;99.90;;;;;;4974392;28;20030;-83
2024/02/07 06:08:49;;;;;;;3.63;0.93;;;7.10;99.90;;;;;;4975017;28;20023;-84
2024/02/07 06:11:15;;;;;;;4.80;1.30;;;7.10;99.90;;;;;;4975407;28;20053;-85
2024/02/07 06:13:41;;;;;;;5.15;1.38;;;7.10;99.90;;;;;;4959068;28;20122;-84
2024/02/07 06:16:07;;;;;;;4.72;1.17;;;7.10;99.90;;;;;;4976140;28;20038;-85
2024/02/07 06:18:35;;;;;;;9.00;1.48;;;7.10;99.90;;;;;;4976366;28;20041;-85
2024/02/07 06:21:02;;;;;;;5.63;1.27;;;7.10;99.90;;;;;;4976221;28;20023;-85
2024/02/07 06:23:30;;;;;;;7.18;1.48;;;7.10;99.90;;;;;;4976199;28;20351;-85
2024/02/07 06:25:58;;;;;;;4.80;1.08;;;7.10;99.90;;;;;;4942756;28;20047;-85
2024/02/07 06:28:24;;;;;;;8.35;1.25;;;7.10;99.90;;;;;;4974875;28;20459;-86
2024/02/07 06:30:50;;;;;;;4.72;1.40;;;7.10;99.90;;;;;;4959102;28;20114;-85
2024/02/07 06:33:16;;;;;;;4.13;1.40;;;7.10;99.90;;;;;;4975450;28;20050;-86
2024/02/07 06:35:42;;;;;;;6.18;1.50;;;7.10;99.90;;;;;;4974663;28;20503;-86
2024/02/07 06:38:08;;;;;;;4.72;1.33;;;7.10;99.90;;;;;;4974572;28;20042;-84
2024/02/07 06:40:34;;;;;;;5.95;1.38;;;7.10;99.90;;;;;;4975016;28;20031;-85
2024/02/07 06:43:00;;;;;;;7.13;1.45;;;7.00;99.90;;;;;;4976135;28;20459;-83
2024/02/07 06:45:25;;;;;;;4.93;1.23;;;7.00;99.90;;;;;;4974831;28;20493;-85
2024/02/07 06:47:57;;;;;;;5.10;1.25;;;7.00;99.90;;;;;;4975238;28;20034;-84
2024/02/07 06:50:24;;;;;;;5.63;1.20;;;7.10;99.90;;;;;;4976468;28;20038;-84
2024/02/07 06:52:50;;;;;;;5.28;1.25;;;7.00;99.90;;;;;;4949096;28;20023;-84
2024/02/07 06:55:18;;;;;;;4.57;1.20;;;7.00;99.90;;;;;;4980807;28;20026;-86
2024/02/07 06:57:49;;;;;;;6.00;1.75;;;7.00;99.90;;;;;;4980776;28;20060;-84
2024/02/07 07:00:18;;;;;;;5.45;1.50;;;7.00;99.90;;;;;;4980942;28;20090;-85
2024/02/07 07:02:44;;;;;;;10.30;1.88;;;6.90;99.90;;;;;;4960448;28;20031;-84
2024/02/07 07:05:09;;;;;;;4.75;1.35;;;7.00;99.90;;;;;;4982276;28;20058;-85
2024/02/07 07:07:37;;;;;;;7.65;1.40;;;7.00;99.90;;;;;;4997684;28;20062;-82
2024/02/07 07:10:03;;;;;;;5.57;1.83;;;7.00;99.90;;;;;;4982130;28;20019;-85
2024/02/07 07:12:29;;;;;;;4.13;1.70;;;6.90;99.90;;;;;;4997777;28;20023;-83
2024/02/07 07:14:55;;;;;;;6.65;1.83;;;6.90;99.90;;;;;;4997916;28;20047;-84
2024/02/07 07:17:20;;;;;;;5.00;1.50;;;6.90;99.90;;;;;;4981654;28;20126;-84
2024/02/07 07:19:46;;;;;;;11.02;1.55;;;6.90;99.90;;;;;;4971908;28;20131;-85
2024/02/07 07:22:12;;;;;;;6.07;2.30;;;6.90;99.90;;;;;;4975307;28;20030;-84
2024/02/07 07:24:38;;;;;;;4.60;1.30;;;6.90;99.90;;;;;;4959129;28;20493;-85
2024/02/07 07:27:05;;;;;;;5.28;1.52;;;7.00;99.90;;;;;;4974545;28;20396;-84
2024/02/07 07:29:30;;;;;;;5.13;1.52;;;7.00;99.90;;;;;;4973729;28;20023;-85
2024/02/07 07:31:57;;;;;;;5.30;1.30;;;7.00;99.90;;;;;;4958340;28;20034;-85
2024/02/07 07:34:23;;;;;;;6.40;1.55;;;7.00;99.90;;;;;;4973506;28;20030;-84
2024/02/07 07:36:51;;;;;;;7.15;1.60;;;7.00;99.90;;;;;;4973917;28;20437;-84
2024/02/07 07:39:17;;;;;;;4.70;1.52;;;7.00;99.90;;;;;;4973951;28;20399;-83
2024/02/07 07:41:43;;;;;;;5.43;1.30;;;7.00;99.90;;;;;;4973894;28;20061;-85
2024/02/07 07:44:09;;;;;;;4.40;1.55;;;7.10;99.90;;;;;;4973956;28;20027;-85
2024/02/07 07:46:34;;;;;;;5.32;1.65;;;7.10;99.90;;;;;;4973271;28;20031;-85
2024/02/07 07:49:00;;;;;;;5.38;1.80;;;7.10;99.90;;;;;;4941611;28;20035;-84
2024/02/07 07:51:26;;;;;;;7.43;1.42;;;7.10;99.90;;;;;;4973416;28;20031;-82
2024/02/07 07:53:52;;;;;;;10.70;1.77;;;7.10;99.90;;;;;;4973758;28;20090;-85
2024/02/07 07:56:20;;;;;;;4.78;1.70;;;7.00;99.90;;;;;;4942392;28;20059;-83
2024/02/07 07:58:51;;;;;;;9.00;1.98;;;7.10;99.90;;;;;;4960490;28;20054;-84
2024/02/07 08:01:19;;;;;;;7.45;1.48;;;7.10;99.90;;;;;;4976926;28;20355;-85
2024/02/07 08:03:45;;;;;;;7.43;1.85;;;7.10;99.90;;;;;;4960987;28;20029;-85
2024/02/07 08:06:11;;;;;;;10.32;2.00;;;7.10;99.90;;;;;;4977033;28;20022;-85
2024/02/07 08:08:37;;;;;;;6.65;1.65;;;7.10;99.90;;;;;;4976634;28;20561;-86
2024/02/07 08:11:03;;;;;;;4.93;1.73;;;7.10;99.90;;;;;;4976482;28;20050;-85
2024/02/07 08:13:29;;;;;;;6.63;1.73;;;7.10;99.90;;;;;;4976654;28;20054;-85
2024/02/07 08:15:55;;;;;;;5.82;1.42;;;7.10;99.90;;;;;;4976416;28;20069;-84
2024/02/07 08:18:21;;;;;;;3.95;1.38;;;7.10;99.90;;;;;;4976585;28;20493;-85
2024/02/07 08:20:47;;;;;;;6.35;1.83;;;7.10;99.90;;;;;;4977493;28;20046;-85
2024/02/07 08:23:13;;;;;;;5.57;2.10;;;7.10;99.90;;;;;;4976770;28;20382;-85
2024/02/07 08:25:38;;;;;;;7.13;1.83;;;7.20;99.90;;;;;;4994088;28;20038;-84
2024/02/07 08:28:04;;;;;;;9.02;2.13;;;7.10;99.90;;;;;;4980764;28;20124;-85
2024/02/07 08:30:30;;;;;;;5.15;1.45;;;7.20;99.90;;;;;;4964782;28;20054;-85
2024/02/07 08:32:56;;;;;;;7.07;1.70;;;7.20;99.90;;;;;;4999571;28;20022;-83
2024/02/07 08:35:22;;;;;;;5.72;1.40;;;7.20;99.90;;;;;;4984723;28;20036;-85
2024/02/07 08:37:48;;;;;;;6.63;1.58;;;7.20;99.90;;;;;;5003910;28;20057;-84
2024/02/07 08:40:17;;;;;;;8.18;1.88;;;7.20;99.90;;;;;;5021269;28;20082;-84
2024/02/07 08:42:44;;;;;;;7.32;2.15;;;7.30;99.90;;;;;;4998898;28;20085;-84
2024/02/07 08:45:10;;;;;;;6.03;1.90;;;7.30;99.90;;;;;;4998889;28;20030;-86
2024/02/07 08:47:36;;;;;;;7.55;2.17;;;7.30;99.90;;;;;;4979596;28;20448;-86
2024/02/07 08:50:02;;;;;;;7.45;1.98;;;7.30;99.90;;;;;;4997142;28;20057;-83
2024/02/07 08:52:30;;;;;;;7.13;1.83;;;7.30;99.90;;;;;;4963516;28;20019;-84
2024/02/07 08:54:56;;;;;;;6.47;1.98;;;7.30;99.90;;;;;;4979473;28;20081;-84
2024/02/07 08:57:27;;;;;;;7.22;1.80;;;7.30;99.90;;;;;;4995781;28;20430;-85
2024/02/07 08:59:53;;;;;;;6.85;2.20;;;7.30;99.90;;;;;;4997055;28;20054;-85
2024/02/07 09:02:19;;;;;;;8.00;1.75;;;7.40;99.90;;;;;;4996084;28;20121;-83
2024/02/07 09:04:45;;;;;;;7.55;2.08;;;7.40;99.90;;;;;;4963389;28;20037;-84
2024/02/07 09:07:11;;;;;;;8.73;2.72;;;7.40;99.90;;;;;;4963429;28;20031;-84
2024/02/07 09:09:37;;;;;;;8.73;2.22;;;7.40;99.90;;;;;;4963219;28;20466;-84
2024/02/07 09:12:03;;;;;;;6.93;1.98;;;7.40;99.90;;;;;;4963687;28;20125;-85
2024/02/07 09:14:28;;;;;;;9.38;2.35;;;7.40;99.90;;;;;;4995950;28;20022;-85
2024/02/07 09:16:54;;;;;;;10.00;2.88;;;7.40;99.90;;;;;;4979804;28;20041;-85
2024/02/07 09:19:20;;;;;;;6.50;1.85;;;7.40;99.90;;;;;;4979769;28;20026;-84
2024/02/07 09:21:45;;;;;;;13.20;2.72;;;7.40;99.90;;;;;;4962721;28;20059;-85
2024/02/07 09:24:11;;;;;;;7.10;2.40;;;7.50;99.90;;;;;;4979562;28;20031;-85
2024/02/07 09:26:37;;;;;;;7.32;2.33;;;7.40;99.90;;;;;;4997000;28;20476;-85
2024/02/07 09:29:03;;;;;;;9.48;2.70;;;7.50;99.90;;;;;;4979096;28;20034;-84
2024/02/07 09:31:29;;;;;;;6.30;1.70;;;7.50;99.90;;;;;;4979656;28;20076;-84
2024/02/07 09:33:54;;;;;;;6.70;1.95;;;7.50;99.90;;;;;;4963129;28;20038;-83
2024/02/07 09:36:20;;;;;;;6.40;2.25;;;7.50;99.90;;;;;;4963200;28;20038;-85
2024/02/07 09:38:45;;;;;;;9.45;2.22;;;7.50;99.90;;;;;;4978876;28;20031;-85
2024/02/07 09:41:15;;;;;;;8.00;2.28;;;7.50;99.90;;;;;;4979337;28;20026;-85
2024/02/07 09:43:41;;;;;;;5.97;1.77;;;7.50;99.90;;;;;;4979088;28;20026;-84
2024/02/07 09:46:10;;;;;;;5.88;2.00;;;7.60;99.90;;;;;;4979336;28;20026;-85
2024/02/07 09:48:36;;;;;;;8.77;2.40;;;7.60;99.90;;;;;;5001754;28;20022;-85
2024/02/07 09:51:02;;;;;;;5.72;2.40;;;7.70;99.90;;;;;;5002885;28;20538;-84
2024/02/07 09:53:32;;;;;;;8.18;2.35;;;7.70;99.90;;;;;;4984835;28;20517;-85
2024/02/07 09:55:58;;;;;;;10.52;2.60;;;7.70;99.90;;;;;;5000596;28;20125;-85
2024/02/07 09:58:24;;;;;;;8.40;2.30;;;7.70;99.90;;;;;;4980119;28;20030;-84
2024/02/07 10:00:54;;;;;;;8.88;2.22;;;7.70;99.90;;;;;;4990712;28;20034;-84
2024/02/07 10:03:24;;;;;;;6.80;2.28;;;7.80;99.90;;;;;;5003672;28;20011;-82
2024/02/07 10:05:57;;;;;;;8.23;2.38;;;7.80;99.90;;;;;;5002658;28;20070;-82
2024/02/07 10:08:29;;;;;;;8.95;2.30;;;7.80;99.90;;;;;;5002690;28;20014;-85
2024/02/07 10:10:54;;;;;;;9.77;2.63;;;7.90;99.90;;;;;;4982795;28;20065;-83
2024/02/07 10:13:20;;;;;;;7.72;2.38;;;7.90;99.90;;;;;;4963331;28;20061;-84
2024/02/07 10:15:48;;;;;;;9.02;2.60;;;7.90;99.90;;;;;;4996042;28;20108;-85
2024/02/07 10:18:14;;;;;;;11.75;2.50;;;7.90;99.90;;;;;;4979009;28;20074;-84
2024/02/07 10:20:50;;;;;;;7.40;1.98;;;7.90;99.90;;;;;;4979073;28;20028;-83
2024/02/07 10:23:16;;;;;;;7.20;2.40;;;8.00;99.90;;;;;;4978951;28;20027;-85
2024/02/07 10:25:49;;;;;;;9.80;2.20;;;8.00;99.90;;;;;;4978392;28;20037;-84
2024/02/07 10:28:15;;;;;;;9.95;2.40;;;8.00;99.90;;;;;;4995431;28;20014;-85
2024/02/07 10:30:41;;;;;;;8.98;2.78;;;8.00;99.90;;;;;;4978128;28;20025;-84
2024/02/07 10:33:06;;;;;;;8.43;2.58;;;8.00;99.90;;;;;;4961844;28;20030;-83
2024/02/07 10:35:32;;;;;;;9.63;2.30;;;8.00;99.90;;;;;;4962198;28;20034;-84
2024/02/07 10:37:58;;;;;;;10.13;2.92;;;8.00;99.90;;;;;;4961546;28;20031;-84
2024/02/07 10:40:24;;;;;;;11.32;2.92;;;8.00;99.90;;;;;;4995294;28;20437;-84
2024/02/07 10:43:00;;;;;;;11.05;2.83;;;8.00;99.90;;;;;;4977241;28;20026;-83
2024/02/07 10:45:26;;;;;;;8.18;3.10;;;8.00;99.90;;;;;;4995530;28;20117;-85
2024/02/07 10:47:52;;;;;;;9.88;2.83;;;8.00;99.90;;;;;;4961475;28;20493;-85
2024/02/07 10:50:20;;;;;;;9.35;2.45;;;8.00;99.90;;;;;;4994533;28;20029;-84
2024/02/07 10:52:47;;;;;;;10.32;3.22;;;8.10;99.90;;;;;;4961744;28;20534;-85
2024/02/07 10:55:14;;;;;;;11.05;3.15;;;8.10;99.90;;;;;;4977222;28;20030;-84
2024/02/07 10:57:44;;;;;;;9.77;2.58;;;8.10;99.90;;;;;;4977572;28;20029;-84
2024/02/07 11:00:11;;;;;;;7.63;2.45;;;8.20;99.90;;;;;;4977318;28;20078;-84
2024/02/07 11:02:38;;;;;;;14.88;2.78;;;8.20;99.90;;;;;;4994510;28;20041;-85
2024/02/07 11:05:05;;;;;;;12.35;2.85;;;8.20;99.90;;;;;;4961412;28;20042;-84
2024/02/07 11:07:32;;;;;;;11.65;2.80;;;8.20;99.90;;;;;;4977812;28;20122;-84
2024/02/07 11:09:59;;;;;;;11.32;2.13;;;8.20;99.90;;;;;;4994640;28;20101;-84
2024/02/07 11:12:25;;;;;;;9.75;2.90;;;8.20;99.90;;;;;;4977923;28;20026;-84
2024/02/07 11:14:51;;;;;;;8.25;2.50;;;8.30;99.90;;;;;;4977696;28;20034;-84
2024/02/07 11:17:17;;;;;;;9.55;2.90;;;8.30;99.90;;;;;;4977484;28;20355;-84
2024/02/07 11:19:44;;;;;;;10.70;2.40;;;8.30;99.90;;;;;;4977579;28;20030;-84
2024/02/07 11:22:39;;;;;;;9.38;2.45;;;8.30;99.90;;;;;;4961803;28;20018;-85
2024/02/07 11:25:06;;;;;;;13.95;3.53;;;8.40;99.90;;;;;;4975163;28;20046;-84
2024/02/07 11:27:32;;;;;;;14.65;3.28;;;8.30;99.90;;;;;;4966690;28;20050;-83
2024/02/07 11:30:02;;;;;;;16.58;3.05;;;8.30;99.90;;;;;;5001081;28;20006;-82
2024/02/07 11:32:31;;;;;;;10.30;2.75;;;8.30;99.90;;;;;;4985086;28;20077;-82
2024/02/07 11:34:56;;;;;;;18.02;3.40;;;8.20;99.90;;;;;;5000185;28;20038;-83
2024/02/07 11:37:22;;;;;;;11.07;2.75;;;8.20;99.90;;;;;;4986476;28;20030;-83
2024/02/07 11:39:49;;;;;;;12.60;2.83;;;8.10;99.90;;;;;;4977308;28;20031;-84
2024/02/07 11:42:18;;;;;;;12.95;2.80;;;8.10;99.90;;;;;;4994829;28;20101;-84
2024/02/07 11:44:52;;;;;;;13.27;2.80;;;8.10;99.90;;;;;;4961205;28;20038;-82
2024/02/07 11:47:34;;;;;;;10.18;2.50;;;8.00;99.90;;;;;;4977385;28;20113;-83
2024/02/07 11:50:02;;;;;;;11.23;2.67;;;8.10;99.90;;;;;;4994432;28;20474;-84
2024/02/07 11:52:38;;;;;;;9.93;2.20;;;8.10;99.90;;;;;;4960291;28;20370;-82
2024/02/07 11:55:15;;;;;;;12.57;2.70;;;8.10;99.90;;;;;;4977049;28;20474;-82
2024/02/07 11:57:43;;;;;;;9.68;2.22;;;8.00;99.90;;;;;;4977142;28;20031;-82
2024/02/07 12:00:14;;;;;;;9.70;2.20;;;7.90;99.90;;;;;;4973809;28;20058;-83
2024/02/07 12:02:48;;;;;;;13.15;2.60;;;8.00;99.90;;;;;;4978906;28;20067;-83
2024/02/07 12:05:16;;;;;;;12.30;3.13;;;8.00;99.90;;;;;;4979025;28;20080;-83
2024/02/07 12:07:42;;;;;;;7.47;2.28;;;8.00;99.90;;;;;;4977923;28;20035;-84
2024/02/07 12:10:09;;;;;;;15.75;2.42;;;7.90;99.90;;;;;;4945652;28;20030;-83
2024/02/07 12:12:35;;;;;;;12.90;2.50;;;7.90;99.90;;;;;;4960955;28;20030;-83
2024/02/07 12:15:01;;;;;;;12.68;2.83;;;7.90;99.90;;;;;;4960869;28;20133;-83
2024/02/07 12:17:27;;;;;;;12.82;2.53;;;7.90;99.90;;;;;;4977765;28;20066;-83
2024/02/07 12:19:57;;;;;;;13.18;3.30;;;7.90;99.90;;;;;;4961502;28;20357;-83
2024/02/07 12:22:25;;;;;;;7.68;2.17;;;8.00;99.90;;;;;;4976790;28;20062;-83
2024/02/07 12:24:52;;;;;;;9.82;2.60;;;8.00;99.90;;;;;;4976831;28;20065;-84
2024/02/07 12:27:17;;;;;;;10.30;2.78;;;8.10;99.90;;;;;;4961037;28;20038;-83
2024/02/07 12:29:49;;;;;;;10.38;2.47;;;8.20;99.90;;;;;;4977570;28;20386;-82
2024/02/07 12:32:16;;;;;;;7.82;2.33;;;8.20;99.90;;;;;;4976907;28;20027;-82
2024/02/07 12:34:41;;;;;;;11.48;2.35;;;8.30;99.90;;;;;;4976876;28;20467;-84
2024/02/07 12:37:08;;;;;;;12.57;2.70;;;8.30;99.90;;;;;;4977497;28;20038;-83
2024/02/07 12:39:34;;;;;;;13.20;2.45;;;8.30;99.90;;;;;;4977027;28;20035;-82
2024/02/07 12:42:04;;;;;;;9.65;2.58;;;8.30;99.90;;;;;;4978652;28;20058;-83
2024/02/07 12:44:32;;;;;;;8.07;2.00;;;8.30;99.90;;;;;;4978954;28;20046;-83
2024/02/07 12:47:02;;;;;;;14.50;2.92;;;8.40;99.90;;;;;;4987358;28;20030;-82
2024/02/07 12:49:31;;;;;;;12.00;2.53;;;8.30;99.90;;;;;;4982805;28;20023;-82
2024/02/07 12:52:00;;;;;;;12.25;2.50;;;8.30;99.90;;;;;;4995451;28;20057;-83
2024/02/07 12:54:28;;;;;;;9.77;2.20;;;8.30;99.90;;;;;;4993738;28;20110;-84
2024/02/07 12:56:54;;;;;;;11.00;2.80;;;8.40;99.90;;;;;;4981199;28;20057;-83
2024/02/07 12:59:32;;;;;;;9.00;2.10;;;8.40;99.90;;;;;;4998822;28;20015;-81
2024/02/07 13:02:02;;;;;;;9.77;2.28;;;8.40;99.90;;;;;;5000342;28;20043;-81
2024/02/07 13:04:31;;;;;;;9.00;2.42;;;8.50;99.90;;;;;;5000764;28;20042;-82
2024/02/07 13:07:02;;;;;;;12.82;2.85;;;8.50;99.90;;;;;;4966495;28;20023;-82
2024/02/07 13:09:30;;;;;;;11.20;2.00;;;8.60;99.90;;;;;;4978933;28;20030;-82
2024/02/07 13:11:56;;;;;;;11.75;2.45;;;8.60;99.90;;;;;;4975294;28;20486;-82
2024/02/07 13:14:22;;;;;;;10.70;2.22;;;8.60;99.90;;;;;;4976159;28;20046;-81
2024/02/07 13:16:51;;;;;;;7.20;1.80;;;8.60;99.90;;;;;;4960045;28;20118;-83
2024/02/07 13:19:17;;;;;;;11.55;2.08;;;8.70;99.90;;;;;;4977509;28;20031;-83
2024/02/07 13:21:43;;;;;;;8.68;2.13;;;8.70;99.90;;;;;;4976207;28;20058;-83
2024/02/07 13:24:19;;;;;;;10.75;2.13;;;8.70;99.90;;;;;;4943597;28;20073;-82
2024/02/07 13:26:46;;;;;;;12.48;2.80;;;8.60;99.90;;;;;;4959456;28;20033;-82
2024/02/07 13:29:12;;;;;;;10.07;2.45;;;8.60;99.90;;;;;;4977130;28;20019;-83
2024/02/07 13:31:38;;;;;;;8.88;2.10;;;8.70;99.90;;;;;;4975657;28;20109;-83
2024/02/07 13:34:14;;;;;;;12.85;2.20;;;8.70;99.90;;;;;;4959456;28;20035;-82
2024/02/07 13:36:40;;;;;;;9.75;2.70;;;8.70;99.90;;;;;;4975997;28;20066;-83
2024/02/07 13:39:06;;;;;;;11.60;2.33;;;8.70;99.90;;;;;;4977030;28;20498;-82
2024/02/07 13:41:33;;;;;;;11.88;2.38;;;8.70;99.90;;;;;;4975568;28;20034;-83
2024/02/07 13:43:59;;;;;;;11.88;2.13;;;8.80;99.90;;;;;;4975410;28;20429;-84
2024/02/07 13:46:25;;;;;;;12.55;2.65;;;8.80;99.90;;;;;;4975593;28;20479;-82
2024/02/07 13:48:54;;;;;;;8.93;2.08;;;8.80;99.90;;;;;;4992182;28;20042;-83
2024/02/07 13:54:42;;;;;;;8.45;2.13;;;8.90;99.90;;;;;;4976422;28;20045;-83
2024/02/07 13:57:08;;;;;;;14.85;2.60;;;8.90;99.90;;;;;;4991653;28;20035;-82
2024/02/07 13:59:34;;;;;;;10.00;2.60;;;8.90;99.90;;;;;;4960950;28;20118;-82
2024/02/07 14:02:01;;;;;;;9.40;2.22;;;8.80;99.90;;;;;;4978341;28;20061;-82
2024/02/07 14:04:26;;;;;;;11.82;2.67;;;8.80;99.90;;;;;;4962880;28;20034;-84
2024/02/07 14:06:52;;;;;;;11.52;2.38;;;8.80;99.90;;;;;;4962544;28;20037;-83
2024/02/07 14:09:18;;;;;;;8.95;2.47;;;8.80;99.90;;;;;;4994878;28;20364;-83